KUOX/UOX METAR and TAF weather

Enter ICAO airport designator
Station Type Date Time Source
KUOX METAR 2021/05/15 01:55 UTC NOAA

KUOX 150155Z AUTO 00000KT 10SM CLR 14/10 A3024 RMK AO2 PWINO


Station Type Date Time Source
KUOX Decoded METAR 2021/05/15 01:55 UTC NOAA

Oxford, University-Oxford Airport, MS, United States (KUOX) 34-23-04N 089-32-08W
May 14, 2021 - 09:55 PM EDT / 2021.05.15 0155 UTC
Wind: Calm:0
Visibility: 10 mile(s):0
Sky conditions: clear
Temperature: 57 F (14 C)
Dew Point: 50 F (10 C)
Relative Humidity: 76%
Pressure (altimeter): 30.24 in. Hg (1024 hPa)
ob: KUOX 150155Z AUTO 00000KT 10SM CLR 14/10 A3024 RMK AO2 PWINO
cycle: 2

Station Type Date Time Source
KUOX TAF UTC NOAA

Error!

Example: see airport list